sensor_id;sensor_type;location;lat;lon;timestamp;temperature;humidity
24518;DHT22;12678;51.336;12.406;2023-07-08T00:00:51;20.20;85.50
24518;DHT22;12678;51.336;12.406;2023-07-08T00:03:19;20.10;85.90
24518;DHT22;12678;51.336;12.406;2023-07-08T00:05:46;20.00;86.30
24518;DHT22;12678;51.336;12.406;2023-07-08T00:08:13;20.00;86.60
24518;DHT22;12678;51.336;12.406;2023-07-08T00:10:39;20.00;86.90
24518;DHT22;12678;51.336;12.406;2023-07-08T00:13:05;20.00;87.20
24518;DHT22;12678;51.336;12.406;2023-07-08T00:15:31;20.00;87.10
24518;DHT22;12678;51.336;12.406;2023-07-08T00:17:58;20.00;87.30
24518;DHT22;12678;51.336;12.406;2023-07-08T00:20:37;20.00;87.60
24518;DHT22;12678;51.336;12.406;2023-07-08T00:23:04;19.90;87.80
24518;DHT22;12678;51.336;12.406;2023-07-08T00:25:32;19.90;88.10
24518;DHT22;12678;51.336;12.406;2023-07-08T00:27:58;20.00;88.30
24518;DHT22;12678;51.336;12.406;2023-07-08T00:30:29;19.90;88.50
24518;DHT22;12678;51.336;12.406;2023-07-08T00:32:57;19.90;88.60
24518;DHT22;12678;51.336;12.406;2023-07-08T00:37:52;19.70;89.40
24518;DHT22;12678;51.336;12.406;2023-07-08T00:40:20;19.60;89.80
24518;DHT22;12678;51.336;12.406;2023-07-08T00:42:47;19.70;90.10
24518;DHT22;12678;51.336;12.406;2023-07-08T00:45:36;19.70;90.00
24518;DHT22;12678;51.336;12.406;2023-07-08T00:48:38;19.70;90.00
24518;DHT22;12678;51.336;12.406;2023-07-08T00:51:08;19.80;90.10
24518;DHT22;12678;51.336;12.406;2023-07-08T00:53:36;19.70;90.20
24518;DHT22;12678;51.336;12.406;2023-07-08T00:58:35;19.60;90.70
24518;DHT22;12678;51.336;12.406;2023-07-08T01:01:05;19.50;90.80
24518;DHT22;12678;51.336;12.406;2023-07-08T01:03:33;19.40;91.10
24518;DHT22;12678;51.336;12.406;2023-07-08T01:06:01;19.30;91.20
24518;DHT22;12678;51.336;12.406;2023-07-08T01:08:28;19.40;91.50
24518;DHT22;12678;51.336;12.406;2023-07-08T01:11:00;19.30;91.50
24518;DHT22;12678;51.336;12.406;2023-07-08T01:13:38;19.30;91.80
24518;DHT22;12678;51.336;12.406;2023-07-08T01:16:05;19.30;92.00
24518;DHT22;12678;51.336;12.406;2023-07-08T01:18:31;19.30;92.20
24518;DHT22;12678;51.336;12.406;2023-07-08T01:21:04;19.30;92.00
24518;DHT22;12678;51.336;12.406;2023-07-08T01:23:32;19.30;92.40
24518;DHT22;12678;51.336;12.406;2023-07-08T01:25:59;19.30;92.20
24518;DHT22;12678;51.336;12.406;2023-07-08T01:28:26;19.30;92.50
24518;DHT22;12678;51.336;12.406;2023-07-08T01:30:53;19.40;92.30
24518;DHT22;12678;51.336;12.406;2023-07-08T01:33:20;19.40;92.60
24518;DHT22;12678;51.336;12.406;2023-07-08T01:35:49;19.30;92.80
24518;DHT22;12678;51.336;12.406;2023-07-08T01:38:18;19.30;92.90
24518;DHT22;12678;51.336;12.406;2023-07-08T01:40:53;19.10;93.20
24518;DHT22;12678;51.336;12.406;2023-07-08T01:43:19;19.10;93.50
24518;DHT22;12678;51.336;12.406;2023-07-08T01:45:45;19.00;93.80
24518;DHT22;12678;51.336;12.406;2023-07-08T01:48:16;18.90;94.30
24518;DHT22;12678;51.336;12.406;2023-07-08T01:50:46;18.90;94.90
24518;DHT22;12678;51.336;12.406;2023-07-08T01:53:15;18.90;94.90
24518;DHT22;12678;51.336;12.406;2023-07-08T01:55:41;18.80;95.10
24518;DHT22;12678;51.336;12.406;2023-07-08T01:58:07;18.90;94.80
24518;DHT22;12678;51.336;12.406;2023-07-08T02:00:32;18.90;95.30
24518;DHT22;12678;51.336;12.406;2023-07-08T02:02:58;19.00;95.90
24518;DHT22;12678;51.336;12.406;2023-07-08T02:05:24;19.00;95.80
24518;DHT22;12678;51.336;12.406;2023-07-08T02:07:50;19.10;95.60
24518;DHT22;12678;51.336;12.406;2023-07-08T02:10:15;19.10;95.20
24518;DHT22;12678;51.336;12.406;2023-07-08T02:12:42;19.10;96.50
24518;DHT22;12678;51.336;12.406;2023-07-08T02:15:08;19.20;95.20
24518;DHT22;12678;51.336;12.406;2023-07-08T02:17:34;19.30;94.80
24518;DHT22;12678;51.336;12.406;2023-07-08T02:20:00;19.50;94.30
24518;DHT22;12678;51.336;12.406;2023-07-08T02:22:26;19.70;93.80
24518;DHT22;12678;51.336;12.406;2023-07-08T02:24:52;19.60;94.50
24518;DHT22;12678;51.336;12.406;2023-07-08T02:27:18;19.30;94.60
24518;DHT22;12678;51.336;12.406;2023-07-08T02:29:43;19.20;95.40
24518;DHT22;12678;51.336;12.406;2023-07-08T02:32:09;18.90;96.00
24518;DHT22;12678;51.336;12.406;2023-07-08T02:34:37;18.70;96.60
24518;DHT22;12678;51.336;12.406;2023-07-08T02:37:03;18.60;96.90
24518;DHT22;12678;51.336;12.406;2023-07-08T02:39:30;18.50;97.30
24518;DHT22;12678;51.336;12.406;2023-07-08T02:41:55;18.50;97.50
24518;DHT22;12678;51.336;12.406;2023-07-08T02:44:22;18.40;97.90
24518;DHT22;12678;51.336;12.406;2023-07-08T02:46:48;18.20;98.40
24518;DHT22;12678;51.336;12.406;2023-07-08T02:49:13;18.20;98.80
24518;DHT22;12678;51.336;12.406;2023-07-08T02:51:39;18.30;98.60
24518;DHT22;12678;51.336;12.406;2023-07-08T02:54:05;18.20;98.80
24518;DHT22;12678;51.336;12.406;2023-07-08T02:56:30;18.70;97.80
24518;DHT22;12678;51.336;12.406;2023-07-08T02:58:56;19.20;96.60
24518;DHT22;12678;51.336;12.406;2023-07-08T03:01:22;19.40;95.90
24518;DHT22;12678;51.336;12.406;2023-07-08T03:03:48;19.60;95.60
24518;DHT22;12678;51.336;12.406;2023-07-08T03:06:15;19.60;95.70
24518;DHT22;12678;51.336;12.406;2023-07-08T03:08:41;19.60;95.50
24518;DHT22;12678;51.336;12.406;2023-07-08T03:11:11;19.40;96.00
24518;DHT22;12678;51.336;12.406;2023-07-08T03:13:38;19.40;96.30
24518;DHT22;12678;51.336;12.406;2023-07-08T03:16:04;19.30;96.50
24518;DHT22;12678;51.336;12.406;2023-07-08T03:18:38;19.50;95.80
24518;DHT22;12678;51.336;12.406;2023-07-08T03:21:16;19.30;96.50
24518;DHT22;12678;51.336;12.406;2023-07-08T03:23:42;19.40;95.80
24518;DHT22;12678;51.336;12.406;2023-07-08T03:26:24;19.50;96.20
24518;DHT22;12678;51.336;12.406;2023-07-08T03:28:50;19.40;95.90
24518;DHT22;12678;51.336;12.406;2023-07-08T03:31:16;19.50;96.10
24518;DHT22;12678;51.336;12.406;2023-07-08T03:33:42;19.50;96.10
24518;DHT22;12678;51.336;12.406;2023-07-08T03:36:16;19.30;96.50
24518;DHT22;12678;51.336;12.406;2023-07-08T03:38:56;19.30;96.50
24518;DHT22;12678;51.336;12.406;2023-07-08T03:41:22;19.00;97.20
24518;DHT22;12678;51.336;12.406;2023-07-08T03:43:49;18.70;97.90
24518;DHT22;12678;51.336;12.406;2023-07-08T03:46:17;18.70;98.30
24518;DHT22;12678;51.336;12.406;2023-07-08T03:48:43;18.50;98.90
24518;DHT22;12678;51.336;12.406;2023-07-08T03:51:28;18.40;99.20
24518;DHT22;12678;51.336;12.406;2023-07-08T03:53:54;18.50;99.50
24518;DHT22;12678;51.336;12.406;2023-07-08T03:56:20;18.30;99.80
24518;DHT22;12678;51.336;12.406;2023-07-08T03:58:46;18.60;99.40
24518;DHT22;12678;51.336;12.406;2023-07-08T04:01:20;18.70;99.30
24518;DHT22;12678;51.336;12.406;2023-07-08T04:03:47;19.00;98.80
24518;DHT22;12678;51.336;12.406;2023-07-08T04:06:14;19.20;98.60
24518;DHT22;12678;51.336;12.406;2023-07-08T04:08:40;19.10;98.70
24518;DHT22;12678;51.336;12.406;2023-07-08T04:11:06;19.20;99.10
24518;DHT22;12678;51.336;12.406;2023-07-08T04:13:32;19.30;98.60
24518;DHT22;12678;51.336;12.406;2023-07-08T04:16:01;19.20;98.70
24518;DHT22;12678;51.336;12.406;2023-07-08T04:18:27;19.30;98.50
24518;DHT22;12678;51.336;12.406;2023-07-08T04:20:53;19.00;99.30
24518;DHT22;12678;51.336;12.406;2023-07-08T04:23:19;18.90;99.80
24518;DHT22;12678;51.336;12.406;2023-07-08T04:25:47;18.90;99.70
24518;DHT22;12678;51.336;12.406;2023-07-08T04:28:13;18.80;99.90
24518;DHT22;12678;51.336;12.406;2023-07-08T04:30:38;18.80;99.90
24518;DHT22;12678;51.336;12.406;2023-07-08T04:33:07;18.80;99.90
24518;DHT22;12678;51.336;12.406;2023-07-08T04:35:34;18.70;99.90
24518;DHT22;12678;51.336;12.406;2023-07-08T04:38:01;18.80;99.90
24518;DHT22;12678;51.336;12.406;2023-07-08T04:40:26;18.90;99.90
24518;DHT22;12678;51.336;12.406;2023-07-08T04:42:53;19.20;99.70
24518;DHT22;12678;51.336;12.406;2023-07-08T04:45:19;19.50;99.60
24518;DHT22;12678;51.336;12.406;2023-07-08T04:47:45;19.80;98.60
24518;DHT22;12678;51.336;12.406;2023-07-08T04:50:17;20.30;97.50
24518;DHT22;12678;51.336;12.406;2023-07-08T04:52:43;20.70;97.30
24518;DHT22;12678;51.336;12.406;2023-07-08T04:55:09;21.40;95.90
24518;DHT22;12678;51.336;12.406;2023-07-08T04:57:35;21.90;94.60
24518;DHT22;12678;51.336;12.406;2023-07-08T05:00:01;22.80;93.10
24518;DHT22;12678;51.336;12.406;2023-07-08T05:02:26;23.40;91.80
24518;DHT22;12678;51.336;12.406;2023-07-08T05:04:52;23.40;90.60
24518;DHT22;12678;51.336;12.406;2023-07-08T05:07:17;23.60;91.00
24518;DHT22;12678;51.336;12.406;2023-07-08T05:09:43;24.50;89.90
24518;DHT22;12678;51.336;12.406;2023-07-08T05:12:09;25.10;87.10
24518;DHT22;12678;51.336;12.406;2023-07-08T05:14:35;25.20;85.60
24518;DHT22;12678;51.336;12.406;2023-07-08T05:17:00;25.50;85.10
24518;DHT22;12678;51.336;12.406;2023-07-08T05:19:26;25.90;84.20
24518;DHT22;12678;51.336;12.406;2023-07-08T05:21:52;25.90;83.50
24518;DHT22;12678;51.336;12.406;2023-07-08T05:24:18;26.50;82.50
24518;DHT22;12678;51.336;12.406;2023-07-08T05:26:44;26.60;81.30
24518;DHT22;12678;51.336;12.406;2023-07-08T05:29:10;27.10;79.90
24518;DHT22;12678;51.336;12.406;2023-07-08T05:31:35;26.60;78.20
24518;DHT22;12678;51.336;12.406;2023-07-08T05:34:01;26.50;80.10
24518;DHT22;12678;51.336;12.406;2023-07-08T05:36:26;26.90;77.90
24518;DHT22;12678;51.336;12.406;2023-07-08T05:38:52;27.20;78.50
24518;DHT22;12678;51.336;12.406;2023-07-08T05:41:18;27.20;76.90
24518;DHT22;12678;51.336;12.406;2023-07-08T05:43:43;26.70;76.60
24518;DHT22;12678;51.336;12.406;2023-07-08T05:46:09;26.30;78.60
24518;DHT22;12678;51.336;12.406;2023-07-08T05:48:36;26.10;79.90
24518;DHT22;12678;51.336;12.406;2023-07-08T05:51:02;26.40;79.20
24518;DHT22;12678;51.336;12.406;2023-07-08T05:53:27;26.70;78.30
24518;DHT22;12678;51.336;12.406;2023-07-08T05:55:53;26.40;79.30
24518;DHT22;12678;51.336;12.406;2023-07-08T05:58:19;26.60;78.10
24518;DHT22;12678;51.336;12.406;2023-07-08T06:00:45;26.60;77.70
24518;DHT22;12678;51.336;12.406;2023-07-08T06:03:11;26.50;77.50
24518;DHT22;12678;51.336;12.406;2023-07-08T06:05:37;26.00;78.70
24518;DHT22;12678;51.336;12.406;2023-07-08T06:08:05;25.90;78.60
24518;DHT22;12678;51.336;12.406;2023-07-08T06:10:30;26.20;79.50
24518;DHT22;12678;51.336;12.406;2023-07-08T06:12:56;26.80;78.40
24518;DHT22;12678;51.336;12.406;2023-07-08T06:15:21;26.80;78.20
24518;DHT22;12678;51.336;12.406;2023-07-08T06:17:47;26.60;78.00
24518;DHT22;12678;51.336;12.406;2023-07-08T06:20:13;26.20;79.00
24518;DHT22;12678;51.336;12.406;2023-07-08T06:22:38;26.00;80.60
24518;DHT22;12678;51.336;12.406;2023-07-08T06:25:04;25.50;80.20
24518;DHT22;12678;51.336;12.406;2023-07-08T06:27:30;25.30;81.40
24518;DHT22;12678;51.336;12.406;2023-07-08T06:29:55;25.30;81.60
24518;DHT22;12678;51.336;12.406;2023-07-08T06:32:21;25.10;83.30
24518;DHT22;12678;51.336;12.406;2023-07-08T06:34:46;24.80;84.30
24518;DHT22;12678;51.336;12.406;2023-07-08T06:37:12;24.80;83.90
24518;DHT22;12678;51.336;12.406;2023-07-08T06:39:37;24.60;84.20
24518;DHT22;12678;51.336;12.406;2023-07-08T06:42:03;24.50;84.50
24518;DHT22;12678;51.336;12.406;2023-07-08T06:44:29;24.70;83.60
24518;DHT22;12678;51.336;12.406;2023-07-08T06:46:55;24.80;83.20
24518;DHT22;12678;51.336;12.406;2023-07-08T06:49:20;24.80;84.70
24518;DHT22;12678;51.336;12.406;2023-07-08T06:51:46;25.10;84.80
24518;DHT22;12678;51.336;12.406;2023-07-08T06:54:12;25.20;83.60
24518;DHT22;12678;51.336;12.406;2023-07-08T06:56:38;25.30;83.60
24518;DHT22;12678;51.336;12.406;2023-07-08T06:59:04;25.50;82.10
24518;DHT22;12678;51.336;12.406;2023-07-08T07:01:30;26.00;81.70
24518;DHT22;12678;51.336;12.406;2023-07-08T07:03:56;26.80;79.50
24518;DHT22;12678;51.336;12.406;2023-07-08T07:06:21;27.60;77.50
24518;DHT22;12678;51.336;12.406;2023-07-08T07:08:48;27.90;75.60
24518;DHT22;12678;51.336;12.406;2023-07-08T07:11:14;28.00;74.50
24518;DHT22;12678;51.336;12.406;2023-07-08T07:13:39;28.00;75.00
24518;DHT22;12678;51.336;12.406;2023-07-08T07:16:05;27.60;75.10
24518;DHT22;12678;51.336;12.406;2023-07-08T07:18:31;27.90;75.10
24518;DHT22;12678;51.336;12.406;2023-07-08T07:20:58;27.70;75.50
24518;DHT22;12678;51.336;12.406;2023-07-08T07:23:24;27.80;75.50
24518;DHT22;12678;51.336;12.406;2023-07-08T07:25:49;28.10;75.30
24518;DHT22;12678;51.336;12.406;2023-07-08T07:28:16;28.80;74.20
24518;DHT22;12678;51.336;12.406;2023-07-08T07:30:43;29.10;73.00
24518;DHT22;12678;51.336;12.406;2023-07-08T07:33:09;28.80;71.60
24518;DHT22;12678;51.336;12.406;2023-07-08T07:35:35;28.80;72.40
24518;DHT22;12678;51.336;12.406;2023-07-08T07:38:00;28.70;72.50
24518;DHT22;12678;51.336;12.406;2023-07-08T07:40:26;28.60;71.50
24518;DHT22;12678;51.336;12.406;2023-07-08T07:42:52;28.80;71.70
24518;DHT22;12678;51.336;12.406;2023-07-08T07:45:17;29.10;71.30
24518;DHT22;12678;51.336;12.406;2023-07-08T07:47:43;29.20;70.90
24518;DHT22;12678;51.336;12.406;2023-07-08T07:50:09;29.10;70.50
24518;DHT22;12678;51.336;12.406;2023-07-08T07:52:36;28.80;71.60
24518;DHT22;12678;51.336;12.406;2023-07-08T07:55:03;28.70;71.10
24518;DHT22;12678;51.336;12.406;2023-07-08T07:57:28;28.50;72.60
24518;DHT22;12678;51.336;12.406;2023-07-08T07:59:54;28.50;71.30
24518;DHT22;12678;51.336;12.406;2023-07-08T08:02:19;28.40;72.10
24518;DHT22;12678;51.336;12.406;2023-07-08T08:04:45;28.40;72.20
24518;DHT22;12678;51.336;12.406;2023-07-08T08:07:12;28.30;71.20
24518;DHT22;12678;51.336;12.406;2023-07-08T08:09:40;28.20;71.70
24518;DHT22;12678;51.336;12.406;2023-07-08T08:12:09;28.00;72.70
24518;DHT22;12678;51.336;12.406;2023-07-08T08:14:35;28.00;73.50
24518;DHT22;12678;51.336;12.406;2023-07-08T08:17:01;28.10;73.40
24518;DHT22;12678;51.336;12.406;2023-07-08T08:19:27;28.30;73.20
24518;DHT22;12678;51.336;12.406;2023-07-08T08:21:53;28.80;71.80
24518;DHT22;12678;51.336;12.406;2023-07-08T08:24:18;29.30;71.50
24518;DHT22;12678;51.336;12.406;2023-07-08T08:26:44;29.70;68.00
24518;DHT22;12678;51.336;12.406;2023-07-08T08:29:10;29.70;66.50
24518;DHT22;12678;51.336;12.406;2023-07-08T08:31:35;30.10;64.10
24518;DHT22;12678;51.336;12.406;2023-07-08T08:34:01;30.20;65.00
24518;DHT22;12678;51.336;12.406;2023-07-08T08:36:27;30.20;64.60
24518;DHT22;12678;51.336;12.406;2023-07-08T08:38:52;30.70;63.70
24518;DHT22;12678;51.336;12.406;2023-07-08T08:41:21;31.00;62.80
24518;DHT22;12678;51.336;12.406;2023-07-08T08:43:49;31.20;61.30
24518;DHT22;12678;51.336;12.406;2023-07-08T08:49:05;30.90;63.00
24518;DHT22;12678;51.336;12.406;2023-07-08T08:51:33;31.10;61.30
24518;DHT22;12678;51.336;12.406;2023-07-08T08:53:59;31.20;60.70
24518;DHT22;12678;51.336;12.406;2023-07-08T08:56:34;31.10;60.30
24518;DHT22;12678;51.336;12.406;2023-07-08T09:01:45;30.80;60.50
24518;DHT22;12678;51.336;12.406;2023-07-08T09:04:15;31.10;59.40
24518;DHT22;12678;51.336;12.406;2023-07-08T09:06:43;31.30;58.10
24518;DHT22;12678;51.336;12.406;2023-07-08T09:09:50;31.20;59.70
24518;DHT22;12678;51.336;12.406;2023-07-08T09:12:22;30.90;60.70
24518;DHT22;12678;51.336;12.406;2023-07-08T09:14:50;30.70;61.30
24518;DHT22;12678;51.336;12.406;2023-07-08T09:17:32;30.90;59.90
24518;DHT22;12678;51.336;12.406;2023-07-08T09:22:40;31.20;59.10
24518;DHT22;12678;51.336;12.406;2023-07-08T09:25:37;31.10;59.10
24518;DHT22;12678;51.336;12.406;2023-07-08T09:28:04;31.10;59.60
24518;DHT22;12678;51.336;12.406;2023-07-08T09:30:30;31.30;59.30
24518;DHT22;12678;51.336;12.406;2023-07-08T09:32:56;31.20;59.20
24518;DHT22;12678;51.336;12.406;2023-07-08T09:35:28;31.00;59.60
24518;DHT22;12678;51.336;12.406;2023-07-08T09:37:54;30.70;59.80
24518;DHT22;12678;51.336;12.406;2023-07-08T09:40:38;30.60;60.80
24518;DHT22;12678;51.336;12.406;2023-07-08T09:43:20;30.60;61.70
24518;DHT22;12678;51.336;12.406;2023-07-08T09:45:49;30.80;60.90
24518;DHT22;12678;51.336;12.406;2023-07-08T09:48:25;30.90;60.50
24518;DHT22;12678;51.336;12.406;2023-07-08T09:50:53;30.80;59.50
24518;DHT22;12678;51.336;12.406;2023-07-08T09:53:19;30.80;59.70
24518;DHT22;12678;51.336;12.406;2023-07-08T09:55:45;30.90;59.40
24518;DHT22;12678;51.336;12.406;2023-07-08T09:58:15;30.60;59.30
24518;DHT22;12678;51.336;12.406;2023-07-08T10:00:44;30.50;60.10
24518;DHT22;12678;51.336;12.406;2023-07-08T10:03:24;30.50;59.30
24518;DHT22;12678;51.336;12.406;2023-07-08T10:05:52;30.40;59.30
24518;DHT22;12678;51.336;12.406;2023-07-08T10:08:23;30.40;58.80
24518;DHT22;12678;51.336;12.406;2023-07-08T10:13:42;30.30;60.50
24518;DHT22;12678;51.336;12.406;2023-07-08T10:18:42;30.30;60.80
24518;DHT22;12678;51.336;12.406;2023-07-08T10:23:51;30.20;60.00
24518;DHT22;12678;51.336;12.406;2023-07-08T10:26:31;30.20;60.00
24518;DHT22;12678;51.336;12.406;2023-07-08T10:32:33;30.90;59.70
24518;DHT22;12678;51.336;12.406;2023-07-08T10:35:10;30.90;59.50
24518;DHT22;12678;51.336;12.406;2023-07-08T10:52:03;31.10;56.60
24518;DHT22;12678;51.336;12.406;2023-07-08T11:05:09;31.40;55.00
24518;DHT22;12678;51.336;12.406;2023-07-08T11:10:16;31.50;55.40
24518;DHT22;12678;51.336;12.406;2023-07-08T11:17:42;31.30;54.40
24518;DHT22;12678;51.336;12.406;2023-07-08T11:21:05;30.80;57.60
24518;DHT22;12678;51.336;12.406;2023-07-08T11:23:45;30.60;57.30
24518;DHT22;12678;51.336;12.406;2023-07-08T11:26:24;31.00;56.70
24518;DHT22;12678;51.336;12.406;2023-07-08T11:28:53;31.10;55.30
24518;DHT22;12678;51.336;12.406;2023-07-08T11:31:22;31.20;54.40
24518;DHT22;12678;51.336;12.406;2023-07-08T11:33:48;31.20;54.10
24518;DHT22;12678;51.336;12.406;2023-07-08T11:36:15;31.30;54.20
24518;DHT22;12678;51.336;12.406;2023-07-08T11:38:49;31.50;52.30
24518;DHT22;12678;51.336;12.406;2023-07-08T11:41:18;31.50;52.30
24518;DHT22;12678;51.336;12.406;2023-07-08T11:43:53;31.50;53.30
24518;DHT22;12678;51.336;12.406;2023-07-08T11:46:26;31.50;53.50
24518;DHT22;12678;51.336;12.406;2023-07-08T11:48:56;31.30;52.90
24518;DHT22;12678;51.336;12.406;2023-07-08T11:51:26;31.20;52.80
24518;DHT22;12678;51.336;12.406;2023-07-08T11:54:28;30.80;52.10
24518;DHT22;12678;51.336;12.406;2023-07-08T11:57:03;30.70;52.50
24518;DHT22;12678;51.336;12.406;2023-07-08T11:59:33;30.60;52.80
24518;DHT22;12678;51.336;12.406;2023-07-08T12:04:30;30.50;51.40
24518;DHT22;12678;51.336;12.406;2023-07-08T12:07:15;30.50;52.90
24518;DHT22;12678;51.336;12.406;2023-07-08T12:09:58;30.60;52.40
24518;DHT22;12678;51.336;12.406;2023-07-08T12:12:33;30.80;52.10
24518;DHT22;12678;51.336;12.406;2023-07-08T12:15:09;30.40;55.10
24518;DHT22;12678;51.336;12.406;2023-07-08T12:17:38;30.30;55.20
24518;DHT22;12678;51.336;12.406;2023-07-08T12:20:12;30.10;54.20
24518;DHT22;12678;51.336;12.406;2023-07-08T12:22:41;30.40;52.90
24518;DHT22;12678;51.336;12.406;2023-07-08T12:25:14;30.50;50.90
24518;DHT22;12678;51.336;12.406;2023-07-08T12:27:42;30.90;51.30
24518;DHT22;12678;51.336;12.406;2023-07-08T12:30:10;30.80;52.70
24518;DHT22;12678;51.336;12.406;2023-07-08T12:32:37;31.00;50.90
24518;DHT22;12678;51.336;12.406;2023-07-08T12:35:03;31.00;50.90
24518;DHT22;12678;51.336;12.406;2023-07-08T12:37:32;30.80;54.10
24518;DHT22;12678;51.336;12.406;2023-07-08T12:39:58;30.90;50.00
24518;DHT22;12678;51.336;12.406;2023-07-08T12:42:30;31.10;49.20
24518;DHT22;12678;51.336;12.406;2023-07-08T12:44:56;31.20;51.70
24518;DHT22;12678;51.336;12.406;2023-07-08T12:47:22;31.30;49.40
24518;DHT22;12678;51.336;12.406;2023-07-08T12:49:48;31.40;49.30
24518;DHT22;12678;51.336;12.406;2023-07-08T12:52:21;31.50;48.10
24518;DHT22;12678;51.336;12.406;2023-07-08T12:54:47;31.40;46.90
24518;DHT22;12678;51.336;12.406;2023-07-08T12:57:15;31.50;47.20
24518;DHT22;12678;51.336;12.406;2023-07-08T12:59:41;31.50;46.60
24518;DHT22;12678;51.336;12.406;2023-07-08T13:02:15;31.50;46.40
24518;DHT22;12678;51.336;12.406;2023-07-08T13:04:44;31.50;47.00
24518;DHT22;12678;51.336;12.406;2023-07-08T13:07:22;31.50;47.30
24518;DHT22;12678;51.336;12.406;2023-07-08T13:09:48;31.50;48.00
24518;DHT22;12678;51.336;12.406;2023-07-08T13:12:19;31.50;47.10
24518;DHT22;12678;51.336;12.406;2023-07-08T13:14:48;31.00;52.10
24518;DHT22;12678;51.336;12.406;2023-07-08T13:17:15;30.80;48.80
24518;DHT22;12678;51.336;12.406;2023-07-08T13:19:43;30.90;49.10
24518;DHT22;12678;51.336;12.406;2023-07-08T13:22:15;31.00;48.40
24518;DHT22;12678;51.336;12.406;2023-07-08T13:24:41;31.10;49.10
24518;DHT22;12678;51.336;12.406;2023-07-08T13:27:20;30.80;49.60
24518;DHT22;12678;51.336;12.406;2023-07-08T13:29:46;30.70;49.20
24518;DHT22;12678;51.336;12.406;2023-07-08T13:32:12;30.60;51.80
24518;DHT22;12678;51.336;12.406;2023-07-08T13:34:39;30.40;52.40
24518;DHT22;12678;51.336;12.406;2023-07-08T13:37:10;30.40;51.80
24518;DHT22;12678;51.336;12.406;2023-07-08T13:39:37;30.40;51.00
24518;DHT22;12678;51.336;12.406;2023-07-08T13:42:03;30.40;51.50
24518;DHT22;12678;51.336;12.406;2023-07-08T13:44:31;30.30;51.20
24518;DHT22;12678;51.336;12.406;2023-07-08T13:46:58;30.30;50.20
24518;DHT22;12678;51.336;12.406;2023-07-08T13:49:26;30.40;48.60
24518;DHT22;12678;51.336;12.406;2023-07-08T13:54:44;30.80;46.90
24518;DHT22;12678;51.336;12.406;2023-07-08T13:57:15;30.90;47.00
24518;DHT22;12678;51.336;12.406;2023-07-08T13:59:41;30.90;46.30
24518;DHT22;12678;51.336;12.406;2023-07-08T14:02:18;30.80;49.00
24518;DHT22;12678;51.336;12.406;2023-07-08T14:04:45;30.80;50.20
24518;DHT22;12678;51.336;12.406;2023-07-08T14:07:20;30.80;49.50
24518;DHT22;12678;51.336;12.406;2023-07-08T14:09:45;30.70;47.90
24518;DHT22;12678;51.336;12.406;2023-07-08T14:12:11;30.60;49.60
24518;DHT22;12678;51.336;12.406;2023-07-08T14:14:37;30.50;52.00
24518;DHT22;12678;51.336;12.406;2023-07-08T14:17:02;30.40;51.50
24518;DHT22;12678;51.336;12.406;2023-07-08T14:19:31;30.30;52.00
24518;DHT22;12678;51.336;12.406;2023-07-08T14:22:09;30.30;52.30
24518;DHT22;12678;51.336;12.406;2023-07-08T14:24:40;30.20;51.20
24518;DHT22;12678;51.336;12.406;2023-07-08T14:27:07;29.90;52.50
24518;DHT22;12678;51.336;12.406;2023-07-08T14:29:40;29.90;51.00
24518;DHT22;12678;51.336;12.406;2023-07-08T14:32:27;29.60;52.10
24518;DHT22;12678;51.336;12.406;2023-07-08T14:34:57;29.80;51.20
24518;DHT22;12678;51.336;12.406;2023-07-08T14:37:24;29.90;51.90
24518;DHT22;12678;51.336;12.406;2023-07-08T14:39:50;29.90;52.30
24518;DHT22;12678;51.336;12.406;2023-07-08T14:42:18;29.80;51.80
24518;DHT22;12678;51.336;12.406;2023-07-08T14:44:47;30.20;50.30
24518;DHT22;12678;51.336;12.406;2023-07-08T14:47:16;30.30;50.60
24518;DHT22;12678;51.336;12.406;2023-07-08T14:49:43;30.30;50.20
24518;DHT22;12678;51.336;12.406;2023-07-08T14:52:08;30.20;52.80
24518;DHT22;12678;51.336;12.406;2023-07-08T14:54:37;30.00;52.40
24518;DHT22;12678;51.336;12.406;2023-07-08T14:57:04;29.90;53.40
24518;DHT22;12678;51.336;12.406;2023-07-08T14:59:32;29.70;52.60
24518;DHT22;12678;51.336;12.406;2023-07-08T15:01:59;29.40;53.60
24518;DHT22;12678;51.336;12.406;2023-07-08T15:04:26;29.40;53.70
24518;DHT22;12678;51.336;12.406;2023-07-08T15:06:52;29.30;54.50
24518;DHT22;12678;51.336;12.406;2023-07-08T15:09:19;29.60;52.20
24518;DHT22;12678;51.336;12.406;2023-07-08T15:11:45;29.70;51.70
24518;DHT22;12678;51.336;12.406;2023-07-08T15:14:21;30.00;50.80
24518;DHT22;12678;51.336;12.406;2023-07-08T15:16:48;30.10;51.20
24518;DHT22;12678;51.336;12.406;2023-07-08T15:19:15;30.10;51.70
24518;DHT22;12678;51.336;12.406;2023-07-08T15:21:41;30.10;50.80
24518;DHT22;12678;51.336;12.406;2023-07-08T15:24:12;30.10;51.90
24518;DHT22;12678;51.336;12.406;2023-07-08T15:26:39;29.90;52.90
24518;DHT22;12678;51.336;12.406;2023-07-08T15:29:41;29.80;52.80
24518;DHT22;12678;51.336;12.406;2023-07-08T15:32:00;29.80;52.70
24518;DHT22;12678;51.336;12.406;2023-07-08T15:34:26;29.60;53.60
24518;DHT22;12678;51.336;12.406;2023-07-08T15:36:51;29.50;53.20
24518;DHT22;12678;51.336;12.406;2023-07-08T15:39:17;29.40;53.00
24518;DHT22;12678;51.336;12.406;2023-07-08T15:41:43;29.20;54.30
24518;DHT22;12678;51.336;12.406;2023-07-08T15:44:10;29.20;53.80
24518;DHT22;12678;51.336;12.406;2023-07-08T15:46:41;29.10;54.50
24518;DHT22;12678;51.336;12.406;2023-07-08T15:49:33;29.00;54.90
24518;DHT22;12678;51.336;12.406;2023-07-08T15:51:59;29.00;55.10
24518;DHT22;12678;51.336;12.406;2023-07-08T15:54:25;29.00;54.80
24518;DHT22;12678;51.336;12.406;2023-07-08T15:56:52;29.20;53.70
24518;DHT22;12678;51.336;12.406;2023-07-08T15:59:28;29.20;53.20
24518;DHT22;12678;51.336;12.406;2023-07-08T16:01:55;29.50;52.50
24518;DHT22;12678;51.336;12.406;2023-07-08T16:04:34;29.70;51.90
24518;DHT22;12678;51.336;12.406;2023-07-08T16:07:00;29.80;51.50
24518;DHT22;12678;51.336;12.406;2023-07-08T16:09:26;29.80;51.00
24518;DHT22;12678;51.336;12.406;2023-07-08T16:11:52;29.80;51.60
24518;DHT22;12678;51.336;12.406;2023-07-08T16:14:18;29.80;50.30
24518;DHT22;12678;51.336;12.406;2023-07-08T16:16:44;29.90;50.40
24518;DHT22;12678;51.336;12.406;2023-07-08T16:19:11;29.90;51.20
24518;DHT22;12678;51.336;12.406;2023-07-08T16:21:38;29.90;50.40
24518;DHT22;12678;51.336;12.406;2023-07-08T16:24:04;29.90;50.60
24518;DHT22;12678;51.336;12.406;2023-07-08T16:26:30;29.90;50.60